ilmateenistus.ee keskkonnaagentuur.ee
EETN Tallinna lennuväli
FTEO31 EETN 261700 CCA
TAF COR EETN 261710Z 2618/2718 23010KT 9999 BKN010 SCT020CB TEMPO
    2619/2622 2000 SHRA BR BKN004 SCT015CB TEMPO 2622/2706 1200 RADZ BR
    OVC003 TEMPO 2710/2716 29015KT 4000 SHRA BKN015CB=

METAR EETN 262050Z 24010KT 9999 BKN007 05/04 Q1003 NOSIG=
Tallinna lennuväli
EEKA Kärdla lennuväli
METAR EEKA 261950Z NIL=
Kärdla lennuväli
EEKE Kuressaare lennuväli
FCEO32 EETN 261400 AAA
TAF AMD EEKE 261800Z 2615/2621 CNL=

METAR EEKE 262050Z AUTO 23006KT 200V260 9999NDV BKN007 BKN042 06/04 Q1005=
Kuressaare lennuväli
EEPU Pärnu lennuväli
METAR EEPU 261950Z NIL=
Pärnu lennuväli
EETU Tartu lennuväli
METAR EETU 262050Z AUTO 23009KT 9999 NCD 05/02 Q1004=
Tartu lennuväli
EEEI Ämari lennuväli
METAR EEEI 262050Z AUTO 21006KT CAVOK 05/03 Q1003 R24/090095=
Ämari lennuväli